Time;durP1;ratioP1;P1;durP2;ratioP2;P2;SDS_P1;SDS_P2;PMS_P1;PMS_P2;Temp;Humidity;BMP_temperature;BMP_pressure;BME280_temperature;BME280_humidity;BME280_pressure;Samples;Min_cycle;Max_cycle;Signal;HPM_P1;HPM_P2
2023/06/20 00:00:07;;;;;;;7.75;6.22;;;;;;;19.63;84.77;98673.63;4501527;31;20153;-65
2023/06/20 00:02:34;;;;;;;9.30;6.57;;;;;;;19.59;86.05;98675.87;4501200;31;20096;-65
2023/06/20 00:05:03;;;;;;;8.80;6.28;;;;;;;19.48;86.84;98679.09;4501446;31;20148;-65
2023/06/20 00:07:33;;;;;;;10.10;6.57;;;;;;;19.36;88.62;98675.34;4501145;31;20092;-65
2023/06/20 00:10:00;;;;;;;11.65;6.43;;;;;;;19.23;89.72;98679.56;4493653;31;20091;-65
2023/06/20 00:12:27;;;;;;;7.12;5.90;;;;;;;19.12;90.89;98669.47;4485460;32;20104;-65
2023/06/20 00:14:55;;;;;;;7.93;6.28;;;;;;;19.01;92.13;98678.00;4490235;31;20171;-65
2023/06/20 00:17:25;;;;;;;9.13;6.18;;;;;;;18.90;93.32;98677.50;4501134;31;20489;-65
2023/06/20 00:19:53;;;;;;;8.15;5.93;;;;;;;18.82;93.82;98674.16;4501076;31;20084;-65
2023/06/20 00:22:20;;;;;;;7.55;6.15;;;;;;;18.77;94.40;98677.38;4501114;31;20088;-65
2023/06/20 00:24:47;;;;;;;12.88;6.70;;;;;;;18.71;94.86;98672.84;4501047;31;20097;-65
2023/06/20 00:27:14;;;;;;;9.02;6.35;;;;;;;18.62;96.25;98678.31;4501406;31;20163;-65
2023/06/20 00:29:41;;;;;;;8.68;6.07;;;;;;;18.57;96.71;98678.03;4501051;31;20080;-65
2023/06/20 00:32:09;;;;;;;8.48;6.00;;;;;;;18.55;96.83;98680.06;4501176;31;20176;-65
2023/06/20 00:34:36;;;;;;;10.52;6.10;;;;;;;18.49;97.82;98674.72;4500952;31;20092;-65
2023/06/20 00:37:03;;;;;;;7.53;6.15;;;;;;;18.42;98.48;98683.41;4501174;31;20167;-65
2023/06/20 00:39:30;;;;;;;7.07;6.15;;;;;;;18.38;99.08;98676.03;4500954;31;20095;-65
2023/06/20 00:41:58;;;;;;;8.35;6.03;;;;;;;18.29;99.75;98685.97;4501116;31;20111;-65
2023/06/20 00:44:25;;;;;;;8.85;5.97;;;;;;;18.25;100.00;98688.16;4500997;31;20144;-65
2023/06/20 00:46:53;;;;;;;10.35;6.05;;;;;;;18.23;100.00;98689.37;4501028;31;20435;-65
2023/06/20 00:49:21;;;;;;;12.32;6.25;;;;;;;18.18;100.00;98683.78;4501021;31;20553;-65
2023/06/20 00:51:48;;;;;;;9.85;5.97;;;;;;;18.16;100.00;98683.97;4500912;31;20096;-65
2023/06/20 00:54:15;;;;;;;7.45;6.18;;;;;;;18.15;99.55;98678.84;4500826;31;20093;-65
2023/06/20 00:56:44;;;;;;;8.55;6.22;;;;;;;18.13;99.00;98671.09;4486600;31;20153;-65
2023/06/20 00:59:11;;;;;;;7.20;5.95;;;;;;;18.11;99.05;98673.13;4500795;31;20114;-65
2023/06/20 01:01:39;;;;;;;7.50;5.93;;;;;;;18.08;98.93;98679.62;4473427;31;20112;-65
2023/06/20 01:04:09;;;;;;;9.25;6.85;;;;;;;18.09;98.96;98675.97;4500961;31;20127;-65
2023/06/20 01:06:42;;;;;;;8.15;5.93;;;;;;;18.11;97.98;98678.44;4486428;31;20446;-65
2023/06/20 01:09:33;;;;;;;9.50;6.50;;;;;;;18.09;98.69;98669.81;4498996;31;20490;-64
2023/06/20 01:12:05;;;;;;;9.65;6.70;;;;;;;18.04;98.35;98678.34;4485157;31;20170;-65
2023/06/20 01:14:42;;;;;;;9.63;5.93;;;;;;;18.05;98.74;98684.47;4484933;31;20100;-65
2023/06/20 01:17:44;;;;;;;9.55;5.93;;;;;;;18.13;98.09;98678.25;4483859;32;20100;-65
2023/06/20 01:20:13;;;;;;;8.63;6.10;;;;;;;18.17;97.89;98676.84;4420270;32;20125;-65
2023/06/20 01:22:44;;;;;;;10.77;6.97;;;;;;;18.20;97.16;98679.94;4420423;32;20477;-65
2023/06/20 01:25:25;;;;;;;9.82;6.53;;;;;;;18.25;97.33;98685.50;4420389;32;20098;-64
2023/06/20 01:28:04;;;;;;;9.63;6.72;;;;;;;18.28;97.58;98686.97;4408083;32;20164;-64
2023/06/20 01:30:51;;;;;;;10.52;7.35;;;;;;;18.20;98.84;98687.91;4406764;32;20491;-65
2023/06/20 01:33:24;;;;;;;9.30;6.62;;;;;;;18.19;99.12;98685.44;4407834;32;20143;-65
2023/06/20 01:35:52;;;;;;;9.57;6.43;;;;;;;18.20;99.01;98687.09;4407864;32;20481;-65
2023/06/20 01:38:20;;;;;;;12.07;6.68;;;;;;;18.20;98.86;98681.78;4420360;32;20168;-65
2023/06/20 01:40:49;;;;;;;11.02;6.43;;;;;;;18.15;99.18;98682.31;4407952;32;20574;-65
2023/06/20 01:43:19;;;;;;;9.13;6.18;;;;;;;18.13;99.81;98680.88;4407753;32;20181;-65
2023/06/20 01:45:49;;;;;;;10.60;6.80;;;;;;;18.11;99.76;98673.13;4407784;32;20163;-65
2023/06/20 01:48:18;;;;;;;8.82;6.70;;;;;;;18.14;99.44;98670.09;4407448;32;20090;-65
2023/06/20 01:50:47;;;;;;;8.40;6.30;;;;;;;18.22;99.48;98672.63;4407492;32;20506;-65
2023/06/20 01:53:15;;;;;;;9.40;6.15;;;;;;;18.07;100.00;98669.19;4420165;32;20128;-65
2023/06/20 01:55:42;;;;;;;10.57;5.82;;;;;;;17.98;100.00;98673.78;4440131;32;20104;-65
2023/06/20 01:58:10;;;;;;;9.85;7.15;;;;;;;17.89;100.00;98670.41;4483644;32;20096;-65
2023/06/20 02:00:38;;;;;;;7.30;6.22;;;;;;;17.94;100.00;98667.25;4484694;31;20653;-64
2023/06/20 02:03:05;;;;;;;7.75;6.05;;;;;;;17.96;100.00;98667.87;4483217;32;20123;-65
2023/06/20 02:05:34;;;;;;;10.77;6.72;;;;;;;17.94;100.00;98666.41;4483454;32;20112;-64
2023/06/20 02:08:01;;;;;;;13.48;6.35;;;;;;;17.95;100.00;98666.22;4483054;32;20084;-65
2023/06/20 02:10:29;;;;;;;8.75;6.43;;;;;;;18.02;99.56;98666.31;4483023;32;20119;-65
2023/06/20 02:12:58;;;;;;;11.82;6.60;;;;;;;18.05;100.00;98668.56;4484314;31;20628;-65
2023/06/20 02:15:26;;;;;;;13.77;6.40;;;;;;;17.86;100.00;98664.66;4484481;31;20153;-65
2023/06/20 02:17:56;;;;;;;8.43;6.43;;;;;;;17.81;100.00;98677.66;4484267;31;20167;-65
2023/06/20 02:20:23;;;;;;;10.00;6.60;;;;;;;17.72;100.00;98663.69;4484081;31;20161;-64
2023/06/20 02:22:52;;;;;;;8.48;5.87;;;;;;;17.75;100.00;98665.97;4484218;32;20089;-65
2023/06/20 02:25:21;;;;;;;7.57;5.80;;;;;;;17.83;100.00;98667.69;4483068;32;20164;-65
2023/06/20 02:27:52;;;;;;;9.90;6.32;;;;;;;17.96;99.51;98675.00;4482891;32;20111;-64
2023/06/20 02:30:22;;;;;;;8.13;5.85;;;;;;;18.03;98.52;98675.87;4482736;32;20234;-65
2023/06/20 02:32:50;;;;;;;9.50;5.60;;;;;;;18.11;97.64;98680.25;4483979;31;20095;-65
2023/06/20 02:35:17;;;;;;;14.43;6.78;;;;;;;18.16;97.15;98683.97;4482826;32;20104;-65
2023/06/20 02:37:46;;;;;;;7.72;6.10;;;;;;;18.23;96.63;98686.72;4482623;32;20593;-65
2023/06/20 02:40:13;;;;;;;11.68;6.55;;;;;;;18.29;95.71;98687.75;4482675;32;20147;-65
2023/06/20 02:42:40;;;;;;;11.23;6.03;;;;;;;18.36;94.51;98691.31;4485787;32;20120;-65
2023/06/20 02:45:11;;;;;;;8.80;6.90;;;;;;;18.36;95.30;98692.13;4486048;31;20109;-65
2023/06/20 02:47:53;;;;;;;10.30;5.95;;;;;;;18.31;95.99;98685.75;4485909;32;20537;-65
2023/06/20 02:50:27;;;;;;;10.73;6.47;;;;;;;18.38;95.02;98678.66;4486014;32;20466;-65
2023/06/20 02:53:10;;;;;;;8.32;6.12;;;;;;;18.43;94.85;98682.41;4484799;32;20093;-65
2023/06/20 02:55:52;;;;;;;9.18;5.87;;;;;;;18.36;95.44;98675.41;4484804;32;20480;-64
2023/06/20 02:58:21;;;;;;;8.05;6.10;;;;;;;18.34;94.84;98686.19;4484840;32;20092;-65
2023/06/20 03:00:50;;;;;;;13.23;5.87;;;;;;;18.33;94.96;98686.38;4486367;31;20096;-65
2023/06/20 03:03:24;;;;;;;8.45;6.30;;;;;;;18.32;94.61;98690.87;4501713;31;20092;-65
2023/06/20 03:05:58;;;;;;;10.43;6.35;;;;;;;18.32;94.65;98690.03;4487506;31;20122;-65
2023/06/20 03:08:27;;;;;;;10.70;6.10;;;;;;;18.33;94.61;98691.69;4487622;31;20080;-65
2023/06/20 03:10:57;;;;;;;9.52;6.50;;;;;;;18.44;94.29;98696.50;4488392;31;20510;-64
2023/06/20 03:13:24;;;;;;;8.90;6.35;;;;;;;18.40;94.84;98695.25;4485962;31;20135;-65
2023/06/20 03:15:52;;;;;;;8.93;6.45;;;;;;;18.42;95.05;98698.50;4486291;31;20172;-65
2023/06/20 03:18:19;;;;;;;11.80;6.45;;;;;;;18.40;95.20;98709.31;4501821;31;20532;-65
2023/06/20 03:20:48;;;;;;;9.30;6.32;;;;;;;18.43;95.26;98708.13;4501864;31;20598;-65
2023/06/20 03:23:16;;;;;;;9.77;6.87;;;;;;;18.50;95.22;98708.16;4501715;31;20122;-64
2023/06/20 03:25:44;;;;;;;12.05;6.47;;;;;;;18.56;95.05;98705.59;4501787;31;20096;-65
2023/06/20 03:28:12;;;;;;;9.55;6.37;;;;;;;18.63;94.91;98714.41;4501560;31;20136;-65
2023/06/20 03:30:40;;;;;;;7.60;6.53;;;;;;;18.74;94.79;98714.91;4501641;31;20717;-65
2023/06/20 03:33:08;;;;;;;10.60;6.90;;;;;;;18.83;94.29;98715.59;4501800;31;20145;-65
2023/06/20 03:35:35;;;;;;;11.07;6.10;;;;;;;18.90;93.99;98716.53;4501844;31;20100;-65
2023/06/20 03:38:02;;;;;;;8.80;6.28;;;;;;;18.95;93.63;98717.56;4501874;31;20442;-65
2023/06/20 03:40:30;;;;;;;9.70;6.55;;;;;;;19.11;92.69;98726.28;4501593;31;20100;-65
2023/06/20 03:42:57;;;;;;;9.93;5.85;;;;;;;19.18;92.62;98721.81;4501629;31;20145;-65
2023/06/20 03:45:24;;;;;;;10.02;7.03;;;;;;;19.28;91.80;98722.28;4501597;31;20107;-65
2023/06/20 03:47:52;;;;;;;9.45;6.40;;;;;;;19.38;90.98;98724.62;4501429;31;20119;-65
2023/06/20 03:50:19;;;;;;;11.10;6.85;;;;;;;19.52;90.18;98733.47;4501800;31;20103;-65
2023/06/20 03:52:46;;;;;;;8.50;5.85;;;;;;;19.57;90.28;98728.37;4500992;31;20104;-65
2023/06/20 03:55:14;;;;;;;10.10;6.57;;;;;;;19.67;89.59;98731.50;4501291;31;20149;-65
2023/06/20 03:57:41;;;;;;;9.68;6.22;;;;;;;19.78;89.00;98732.81;4501629;31;20092;-64
2023/06/20 04:00:12;;;;;;;12.60;6.50;;;;;;;19.89;87.90;98726.13;4501375;31;20149;-65
2023/06/20 04:02:44;;;;;;;13.25;6.12;;;;;;;20.06;86.73;98733.75;4501148;31;20442;-65
2023/06/20 04:05:12;;;;;;;12.60;6.25;;;;;;;20.15;86.22;98738.72;4484819;32;20100;-65
2023/06/20 04:07:43;;;;;;;11.05;6.62;;;;;;;20.29;85.87;98739.56;4483927;31;20130;-65
2023/06/20 04:10:12;;;;;;;22.45;6.82;;;;;;;20.37;85.61;98734.03;4484437;31;20112;-65
2023/06/20 04:12:40;;;;;;;7.43;6.18;;;;;;;20.53;85.16;98730.19;4480961;32;20611;-65
2023/06/20 04:15:08;;;;;;;8.88;6.12;;;;;;;20.64;85.36;98725.31;4482837;31;20089;-65
2023/06/20 04:17:37;;;;;;;10.80;6.72;;;;;;;20.83;83.80;98723.69;4484391;31;20110;-65
2023/06/20 04:20:14;;;;;;;8.15;5.65;;;;;;;21.01;82.30;98715.88;4483193;31;20651;-65
2023/06/20 04:22:45;;;;;;;12.02;6.18;;;;;;;21.05;82.08;98716.31;4485298;31;20100;-65
2023/06/20 04:25:14;;;;;;;11.50;6.35;;;;;;;21.22;81.39;98712.19;4485272;31;20692;-65
2023/06/20 04:27:42;;;;;;;8.18;6.03;;;;;;;21.31;80.34;98717.31;4485441;31;20108;-65
2023/06/20 04:30:11;;;;;;;10.00;5.95;;;;;;;21.38;80.51;98715.44;4483185;31;20109;-65
2023/06/20 04:32:39;;;;;;;16.45;6.40;;;;;;;21.40;80.00;98724.84;4482831;31;20514;-64
2023/06/20 04:35:10;;;;;;;17.55;7.20;;;;;;;21.36;80.52;98723.66;4480909;32;20122;-64
2023/06/20 04:37:39;;;;;;;9.82;6.00;;;;;;;21.40;80.90;98724.03;4483127;32;20201;-64
2023/06/20 04:40:08;;;;;;;13.62;6.62;;;;;;;21.37;81.62;98727.94;4485314;31;20096;-64
2023/06/20 04:42:37;;;;;;;11.25;6.68;;;;;;;21.31;82.29;98726.09;4483939;31;20515;-64
2023/06/20 04:45:05;;;;;;;8.55;6.65;;;;;;;21.19;82.88;98725.09;4479133;31;20084;-64
2023/06/20 04:47:32;;;;;;;20.05;6.85;;;;;;;21.14;82.41;98725.72;4482935;31;20508;-64
2023/06/20 04:50:03;;;;;;;9.88;6.30;;;;;;;21.11;82.94;98730.66;4484653;32;20092;-64
2023/06/20 04:52:31;;;;;;;19.15;6.75;;;;;;;21.05;83.31;98725.12;4482779;32;20164;-64
2023/06/20 04:55:05;;;;;;;13.30;6.37;;;;;;;21.11;82.28;98730.66;4484546;31;20104;-64
2023/06/20 04:57:32;;;;;;;;;;;;;;;21.10;83.39;98729.81;4485014;31;20445;-64
2023/06/20 05:00:00;;;;;;;12.65;6.20;;;;;;;21.29;82.96;98730.84;4484712;31;19989;-64
2023/06/20 05:02:27;;;;;;;12.07;6.37;;;;;;;21.49;81.46;98743.31;4469512;32;20459;-64
2023/06/20 05:04:55;;;;;;;23.23;6.75;;;;;;;21.61;80.66;98742.47;4481211;31;20095;-64
2023/06/20 05:07:22;;;;;;;10.52;6.37;;;;;;;21.74;79.93;98746.13;4483209;31;21829;-64
2023/06/20 05:09:50;;;;;;;9.63;6.05;;;;;;;21.80;79.65;98743.44;4487818;31;20620;-64
2023/06/20 05:12:17;;;;;;;23.27;7.60;;;;;;;21.88;79.22;98741.59;4484376;31;20168;-64
2023/06/20 05:14:45;;;;;;;13.82;6.53;;;;;;;21.85;79.76;98748.16;4473549;31;20103;-64
2023/06/20 05:17:12;;;;;;;9.63;6.15;;;;;;;21.92;78.86;98743.63;4480615;31;20139;-64
2023/06/20 05:19:39;;;;;;;11.85;6.65;;;;;;;22.05;78.41;98748.06;4481392;32;20088;-64
2023/06/20 05:22:07;;;;;;;9.85;6.05;;;;;;;22.14;78.65;98745.97;4480585;31;20108;-64
2023/06/20 05:24:34;;;;;;;9.52;6.50;;;;;;;22.31;77.32;98735.66;4486332;31;20175;-64
2023/06/20 05:27:02;;;;;;;45.83;8.93;;;;;;;22.43;76.24;98747.28;4484545;31;20104;-64
2023/06/20 05:29:29;;;;;;;20.08;6.57;;;;;;;22.55;79.71;98746.59;4482449;31;81568;-64
2023/06/20 05:31:56;;;;;;;9.75;6.20;;;;;;;22.62;76.94;98748.19;4486522;31;20148;-64
2023/06/20 05:34:23;;;;;;;56.63;8.77;;;;;;;22.67;77.30;98750.22;4482744;31;20114;-64
2023/06/20 05:36:51;;;;;;;13.90;6.20;;;;;;;22.74;77.30;98747.47;4482830;31;20092;-64
2023/06/20 05:39:18;;;;;;;8.63;6.78;;;;;;;22.75;80.71;98744.59;4482493;32;20168;-65
2023/06/20 05:41:47;;;;;;;9.52;6.15;;;;;;;22.96;76.13;98758.63;4482878;32;20541;-65
2023/06/20 05:44:14;;;;;;;47.90;9.23;;;;;;;23.02;76.31;98760.44;4483496;32;20100;-65
2023/06/20 05:46:41;;;;;;;24.02;6.87;;;;;;;23.13;75.86;98764.25;4483019;32;20488;-65
2023/06/20 05:49:10;;;;;;;15.50;6.40;;;;;;;23.24;75.27;98760.88;4484605;31;20500;-65
2023/06/20 05:51:37;;;;;;;31.83;6.93;;;;;;;23.13;76.00;98766.94;4484653;32;20108;-65
2023/06/20 05:54:04;;;;;;;27.13;6.97;;;;;;;23.27;76.68;98768.47;4484079;31;20100;-64
2023/06/20 05:56:32;;;;;;;9.95;5.57;;;;;;;23.48;74.41;98761.91;4484444;32;20126;-64
2023/06/20 05:58:59;;;;;;;13.68;6.37;;;;;;;23.47;74.43;98765.59;4483795;31;20556;-64
2023/06/20 06:01:27;;;;;;;64.70;9.52;;;;;;;23.61;72.89;98770.81;4484218;31;20096;-64
2023/06/20 06:03:55;;;;;;;51.30;9.45;;;;;;;23.57;74.95;98767.75;4484334;32;20108;-65
2023/06/20 06:06:24;;;;;;;20.35;6.82;;;;;;;23.78;73.83;98769.16;4485257;31;20232;-64
2023/06/20 06:08:51;;;;;;;17.55;6.45;;;;;;;23.71;70.26;98776.47;4487238;31;20171;-64
2023/06/20 06:11:19;;;;;;;15.57;6.62;;;;;;;23.80;73.24;98775.13;4476544;31;20104;-64
2023/06/20 06:13:47;;;;;;;22.33;7.30;;;;;;;23.89;72.36;98773.81;4479855;31;20096;-65
2023/06/20 06:16:14;;;;;;;23.92;8.68;;;;;;;23.97;71.89;98766.50;4478923;31;20517;-64
2023/06/20 06:18:41;;;;;;;20.27;7.80;;;;;;;24.08;73.63;98768.44;4481742;31;20540;-64
2023/06/20 06:21:08;;;;;;;18.45;6.82;;;;;;;24.18;72.02;98774.09;4480840;31;20115;-65
2023/06/20 06:23:36;;;;;;;22.15;7.30;;;;;;;24.00;70.94;98769.56;4479983;31;20571;-64
2023/06/20 06:26:04;;;;;;;18.98;6.43;;;;;;;23.92;71.46;98781.41;4481711;31;20154;-65
2023/06/20 06:28:31;;;;;;;12.25;6.43;;;;;;;24.10;71.97;98782.41;4481087;31;20417;-65
2023/06/20 06:31:02;;;;;;;15.27;6.53;;;;;;;24.15;71.27;98787.09;4480945;32;20127;-65
2023/06/20 06:33:29;;;;;;;20.40;6.30;;;;;;;24.42;68.42;98795.59;4482007;31;20104;-64
2023/06/20 06:35:56;;;;;;;33.55;6.55;;;;;;;24.62;64.88;98788.13;4480593;32;20151;-65
2023/06/20 06:38:24;;;;;;;15.07;6.47;;;;;;;24.62;64.14;98806.09;4482442;31;20491;-65
2023/06/20 06:40:54;;;;;;;9.82;6.20;;;;;;;24.57;66.03;98796.03;4480080;31;20165;-65
2023/06/20 06:43:21;;;;;;;10.07;6.10;;;;;;;24.58;64.19;98800.34;4482575;31;20111;-65
2023/06/20 06:45:49;;;;;;;7.68;5.82;;;;;;;24.62;65.82;98803.41;4482894;31;20810;-65
2023/06/20 06:48:16;;;;;;;8.35;5.43;;;;;;;24.64;64.25;98801.31;4482763;31;20122;-65
2023/06/20 06:50:43;;;;;;;12.32;6.15;;;;;;;24.89;66.94;98795.78;4482552;31;20108;-65
2023/06/20 06:53:11;;;;;;;12.63;6.18;;;;;;;24.98;65.00;98796.25;4479961;31;20088;-65
2023/06/20 06:55:44;;;;;;;13.23;6.03;;;;;;;25.10;63.72;98794.44;4480380;31;20092;-65
2023/06/20 06:58:11;;;;;;;7.05;5.68;;;;;;;25.36;62.58;98791.53;4481087;31;20134;-65
2023/06/20 07:00:39;;;;;;;10.30;6.07;;;;;;;25.41;60.29;98799.72;4481074;31;20109;-65
2023/06/20 07:03:08;;;;;;;11.80;5.68;;;;;;;25.37;60.78;98799.34;4480586;31;20176;-65
2023/06/20 07:05:35;;;;;;;10.48;5.75;;;;;;;25.38;61.24;98798.31;4482263;31;20167;-65
2023/06/20 07:08:03;;;;;;;9.77;6.22;;;;;;;25.44;64.25;98804.63;4481816;32;20100;-65
2023/06/20 07:10:30;;;;;;;8.85;5.82;;;;;;;25.62;60.78;98804.50;4482772;31;20168;-65
2023/06/20 07:12:57;;;;;;;10.55;5.30;;;;;;;25.58;61.99;98800.62;4479057;32;20096;-65
2023/06/20 07:15:24;;;;;;;12.93;5.37;;;;;;;25.98;60.45;98810.66;4484300;31;20122;-65
2023/06/20 07:17:52;;;;;;;14.57;6.50;;;;;;;26.13;60.71;98807.47;4480910;31;20126;-65
2023/06/20 07:20:19;;;;;;;14.60;5.90;;;;;;;26.34;60.12;98813.22;4482302;31;20117;-65
2023/06/20 07:22:47;;;;;;;10.02;6.07;;;;;;;26.34;59.39;98816.75;4483011;31;20105;-65
2023/06/20 07:25:16;;;;;;;8.88;5.87;;;;;;;26.18;58.64;98817.50;4481892;32;20110;-65
2023/06/20 07:27:43;;;;;;;14.18;6.43;;;;;;;26.33;58.78;98825.84;4479862;31;20092;-65
2023/06/20 07:30:11;;;;;;;38.10;6.12;;;;;;;26.60;59.51;98822.56;4480929;31;20108;-65
2023/06/20 07:32:38;;;;;;;10.27;7.20;;;;;;;26.77;60.15;98824.53;4483194;31;20119;-65
2023/06/20 07:35:06;;;;;;;8.23;5.60;;;;;;;26.70;58.55;98827.37;4483210;31;20521;-65
2023/06/20 07:37:33;;;;;;;10.15;6.80;;;;;;;26.55;57.91;98825.19;4483889;31;20100;-65
2023/06/20 07:40:01;;;;;;;9.90;6.53;;;;;;;26.44;57.97;98823.38;4482153;31;20093;-65
2023/06/20 07:42:28;;;;;;;18.55;5.90;;;;;;;26.62;56.94;98827.75;4482082;31;21527;-65
2023/06/20 07:44:58;;;;;;;9.30;6.22;;;;;;;26.49;57.66;98826.16;4480859;31;20615;-65
2023/06/20 07:47:25;;;;;;;10.32;6.10;;;;;;;26.55;57.47;98828.69;4482459;31;20528;-65
2023/06/20 07:49:52;;;;;;;12.68;6.47;;;;;;;26.60;58.53;98827.94;4482363;31;20096;-65
2023/06/20 07:52:20;;;;;;;14.70;6.12;;;;;;;26.47;57.79;98822.91;4480946;31;20097;-65
2023/06/20 07:54:47;;;;;;;13.38;6.43;;;;;;;26.69;56.76;98837.31;4481874;31;20469;-65
2023/06/20 07:57:14;;;;;;;14.13;6.37;;;;;;;26.80;56.70;98837.47;4480101;31;20088;-65
2023/06/20 07:59:41;;;;;;;10.55;6.40;;;;;;;26.74;55.87;98834.72;4482732;32;20498;-65
2023/06/20 08:02:09;;;;;;;10.52;6.20;;;;;;;27.08;62.39;98840.13;4482987;31;20096;-65
2023/06/20 08:04:36;;;;;;;14.75;6.60;;;;;;;27.30;59.24;98834.03;4481580;31;20163;-65
2023/06/20 08:07:03;;;;;;;9.43;5.80;;;;;;;27.32;57.81;98831.09;4483269;31;20084;-65
2023/06/20 08:09:30;;;;;;;7.62;5.87;;;;;;;27.47;58.46;98835.94;4482550;31;20176;-65
2023/06/20 08:11:58;;;;;;;11.45;6.00;;;;;;;27.44;56.58;98831.84;4481996;31;20112;-65
2023/06/20 08:14:26;;;;;;;10.77;6.12;;;;;;;27.59;55.35;98828.56;4481920;31;20092;-65
2023/06/20 08:16:53;;;;;;;12.37;5.90;;;;;;;27.56;53.58;98826.38;4481247;31;20114;-65
2023/06/20 08:19:20;;;;;;;8.45;5.97;;;;;;;27.41;55.77;98841.22;4481703;31;22153;-65
2023/06/20 08:21:47;;;;;;;8.75;5.22;;;;;;;27.58;52.36;98835.00;4481485;31;20134;-65
2023/06/20 08:24:14;;;;;;;47.72;7.85;;;;;;;27.74;55.25;98841.44;4482113;31;20104;-65
2023/06/20 08:26:42;;;;;;;11.35;6.07;;;;;;;27.85;51.61;98845.09;4481329;31;20123;-65
2023/06/20 08:29:11;;;;;;;7.72;5.82;;;;;;;27.71;53.24;98840.03;4482037;31;20116;-65
2023/06/20 08:31:38;;;;;;;10.55;6.30;;;;;;;27.62;51.92;98841.53;4480618;31;20522;-65
2023/06/20 08:34:06;;;;;;;9.82;6.07;;;;;;;27.85;56.21;98842.37;4476700;31;20567;-65
2023/06/20 08:36:34;;;;;;;8.43;6.32;;;;;;;27.90;53.18;98845.13;4480558;31;20085;-65
2023/06/20 08:39:01;;;;;;;16.62;6.35;;;;;;;27.90;51.78;98845.94;4479577;31;20131;-65
2023/06/20 08:41:28;;;;;;;10.73;6.75;;;;;;;27.93;50.35;98839.25;4480119;31;20695;-65
2023/06/20 08:43:56;;;;;;;22.83;6.68;;;;;;;28.01;50.70;98838.88;4481146;31;20123;-65
2023/06/20 08:46:24;;;;;;;9.68;6.53;;;;;;;27.80;49.76;98837.75;4471598;31;20168;-65
2023/06/20 08:48:52;;;;;;;10.45;7.03;;;;;;;27.90;51.56;98839.75;4477126;31;20100;-65
2023/06/20 08:51:21;;;;;;;9.30;7.00;;;;;;;28.04;56.97;98835.69;4478991;31;20107;-65
2023/06/20 08:53:49;;;;;;;11.52;7.75;;;;;;;28.14;57.02;98835.78;4480314;31;20359;-65
2023/06/20 08:56:17;;;;;;;13.45;7.28;;;;;;;28.11;53.24;98830.09;4481046;31;20163;-65
2023/06/20 08:58:45;;;;;;;11.65;6.78;;;;;;;28.19;53.88;98828.84;4474700;31;20096;-65
2023/06/20 09:01:12;;;;;;;12.52;6.97;;;;;;;28.29;52.62;98837.84;4481482;31;20471;-65
2023/06/20 09:03:40;;;;;;;8.02;5.78;;;;;;;28.31;50.81;98832.22;4480138;31;20163;-65
2023/06/20 09:06:08;;;;;;;10.02;6.60;;;;;;;28.33;52.44;98832.78;4480789;31;20115;-65
2023/06/20 09:08:37;;;;;;;8.95;6.72;;;;;;;28.48;54.89;98834.84;4479179;31;20127;-65
2023/06/20 09:11:09;;;;;;;8.43;5.95;;;;;;;28.48;52.33;98838.34;4478319;31;20197;-65
2023/06/20 09:13:37;;;;;;;8.82;5.80;;;;;;;28.54;52.40;98827.59;4479626;31;20240;-65
2023/06/20 09:16:08;;;;;;;8.23;6.07;;;;;;;28.75;51.02;98840.28;4480020;31;20603;-65
2023/06/20 09:18:36;;;;;;;10.05;6.10;;;;;;;29.01;52.57;98841.31;4479117;31;20150;-65
2023/06/20 09:21:03;;;;;;;10.68;6.57;;;;;;;29.07;48.34;98842.19;4479522;31;20111;-65
2023/06/20 09:23:32;;;;;;;10.60;5.85;;;;;;;29.22;49.70;98840.69;4478338;31;20149;-65
2023/06/20 09:26:16;;;;;;;13.68;6.62;;;;;;;29.50;48.54;98840.38;4482504;31;20168;-65
2023/06/20 09:28:44;;;;;;;9.45;6.32;;;;;;;29.53;49.89;98844.44;4476426;31;20101;-65
2023/06/20 09:31:13;;;;;;;9.75;6.90;;;;;;;29.28;45.27;98847.75;4479136;31;20157;-65
2023/06/20 09:33:41;;;;;;;10.90;6.22;;;;;;;28.97;47.67;98848.28;4476993;31;20107;-65
2023/06/20 09:36:16;;;;;;;30.17;7.75;;;;;;;29.29;48.29;98844.00;4478473;31;20131;-65
2023/06/20 09:38:44;;;;;;;8.52;6.37;;;;;;;29.52;48.85;98838.25;4481424;31;20451;-65
2023/06/20 09:41:16;;;;;;;11.88;5.95;;;;;;;29.73;49.68;98838.34;4479934;31;20104;-65
2023/06/20 09:43:44;;;;;;;9.68;6.37;;;;;;;29.93;46.94;98842.25;4477130;31;21533;-66
2023/06/20 09:46:12;;;;;;;9.68;6.75;;;;;;;29.89;46.02;98842.00;4481218;31;20156;-66
2023/06/20 09:48:39;;;;;;;15.25;6.32;;;;;;;29.93;46.19;98847.66;4479983;31;20544;-66
2023/06/20 09:51:10;;;;;;;7.05;6.18;;;;;;;29.90;45.15;98846.28;4478846;31;20547;-66
2023/06/20 09:53:47;;;;;;;8.77;6.45;;;;;;;29.93;48.42;98853.88;4479818;32;20100;-66
2023/06/20 09:56:14;;;;;;;12.05;5.93;;;;;;;30.01;46.59;98841.75;4480973;31;20088;-66
2023/06/20 09:58:46;;;;;;;8.30;5.82;;;;;;;30.07;45.61;98846.12;4470893;31;20589;-66
2023/06/20 10:01:20;;;;;;;11.95;6.62;;;;;;;30.00;45.52;98848.25;4471688;31;20115;-66
2023/06/20 10:03:49;;;;;;;8.63;6.57;;;;;;;29.98;47.80;98843.13;4484619;31;20122;-66
2023/06/20 10:06:17;;;;;;;16.40;6.37;;;;;;;29.93;42.70;98843.06;4482235;31;20104;-66
2023/06/20 10:08:45;;;;;;;9.55;6.65;;;;;;;29.79;43.69;98842.69;4485466;31;20730;-66
2023/06/20 10:11:12;;;;;;;9.25;6.32;;;;;;;29.76;45.08;98845.94;4480766;31;20147;-66
2023/06/20 10:13:40;;;;;;;16.75;7.47;;;;;;;30.10;46.37;98837.50;4489624;31;20100;-66
2023/06/20 10:16:07;;;;;;;12.30;6.10;;;;;;;29.95;47.32;98838.22;4483967;31;20119;-66
2023/06/20 10:18:36;;;;;;;8.35;5.78;;;;;;;30.38;45.67;98830.00;4486332;31;20135;-66
2023/06/20 10:21:08;;;;;;;7.07;5.60;;;;;;;30.15;42.85;98844.81;4480655;31;20101;-65
2023/06/20 10:23:39;;;;;;;6.57;5.55;;;;;;;30.22;40.24;98829.97;4485618;31;20509;-65
2023/06/20 10:26:08;;;;;;;11.25;5.87;;;;;;;30.57;39.65;98825.78;4487805;31;20079;-65
2023/06/20 10:28:38;;;;;;;6.35;5.75;;;;;;;30.81;43.85;98830.66;4483649;31;20772;-65
2023/06/20 10:31:05;;;;;;;9.05;5.95;;;;;;;30.67;39.91;98832.28;4490066;31;20444;-65
2023/06/20 10:33:33;;;;;;;40.25;7.32;;;;;;;30.67;38.73;98824.97;4485385;31;20096;-64
2023/06/20 10:36:10;;;;;;;11.32;5.93;;;;;;;30.84;38.49;98821.19;4482870;31;20112;-65
2023/06/20 10:38:59;;;;;;;7.82;5.87;;;;;;;30.48;37.81;98821.13;4479268;31;20100;-63
2023/06/20 10:41:27;;;;;;;7.93;5.62;;;;;;;30.92;39.25;98821.50;4486811;31;20451;-63
2023/06/20 10:43:58;;;;;;;7.70;4.80;;;;;;;31.13;39.22;98818.81;4481477;31;20096;-63
2023/06/20 10:46:34;;;;;;;7.40;5.30;;;;;;;31.41;36.57;98819.31;4485158;31;20104;-62
2023/06/20 10:49:06;;;;;;;7.00;5.12;;;;;;;31.58;40.05;98813.63;4497636;31;20161;-64
2023/06/20 10:51:57;;;;;;;7.93;5.75;;;;;;;31.76;35.99;98818.44;4498672;31;20088;-64
2023/06/20 10:54:35;;;;;;;11.10;6.90;;;;;;;31.95;38.64;98820.59;4498247;31;20584;-65
2023/06/20 10:57:04;;;;;;;8.43;5.70;;;;;;;32.17;37.62;98817.53;4499267;31;20060;-65
2023/06/20 10:59:31;;;;;;;23.23;6.93;;;;;;;32.38;39.94;98827.16;4499405;31;20426;-65
2023/06/20 11:01:58;;;;;;;7.05;5.35;;;;;;;32.62;39.14;98810.22;4499463;31;20092;-65
2023/06/20 11:04:26;;;;;;;28.15;7.43;;;;;;;32.50;38.71;98813.28;4501669;31;20122;-66
2023/06/20 11:06:54;;;;;;;6.10;5.40;;;;;;;32.31;38.44;98810.41;4501210;31;20109;-65
2023/06/20 11:09:25;;;;;;;5.82;5.22;;;;;;;32.57;36.65;98810.25;4491616;31;20556;-66
2023/06/20 11:11:52;;;;;;;6.93;5.20;;;;;;;32.77;38.47;98808.53;4483580;31;20541;-66
2023/06/20 11:14:23;;;;;;;5.85;4.05;;;;;;;32.91;34.32;98801.34;4489372;31;20096;-65
2023/06/20 11:16:51;;;;;;;6.07;4.50;;;;;;;32.90;32.72;98799.72;4484462;31;20092;-65
2023/06/20 11:19:27;;;;;;;5.93;5.05;;;;;;;33.01;34.37;98804.00;4488678;31;20126;-65
2023/06/20 11:21:59;;;;;;;6.97;5.80;;;;;;;32.74;37.92;98798.25;4474780;31;20139;-66
2023/06/20 11:24:29;;;;;;;11.45;5.50;;;;;;;32.51;37.06;98795.13;4483633;31;20118;-66
2023/06/20 11:27:12;;;;;;;9.80;5.30;;;;;;;32.53;36.77;98791.00;4487282;31;20141;-65
2023/06/20 11:29:40;;;;;;;9.38;5.28;;;;;;;32.87;34.18;98787.56;4479542;31;20085;-66
2023/06/20 11:32:11;;;;;;;6.40;5.07;;;;;;;33.23;34.62;98790.00;4486448;31;20112;-65
2023/06/20 11:34:56;;;;;;;11.95;5.70;;;;;;;33.25;34.75;98790.50;4483754;31;20385;-66
2023/06/20 11:37:23;;;;;;;9.07;4.93;;;;;;;32.93;34.45;98780.19;4486228;31;20089;-65